tititudorancea.com
Station Historical Data
Daily Summary for Nil La, TWC- Units:  English    Metric   Both
« Previous Day
Next Day »
Daily Weekly Monthly Yearly Custom
  High: Low: Average:
Temperature: TemperatureF °F 51.7 °F 65.6 °F
Dew Point: DewpointF °F 48.5 °F 50.7 °F
Humidity: Humidity % 27 % 64 %
Wind Speed: WindSpeedMPH mph 0.0 mph 7.1 mph
Wind Gust: WindSpeedGustMPH mph - -
Wind:- - SE
Pressure: PressureIn in 30.14 in -
Precipitation: 0.00 in    
Historical Graphs
 
 
Ararat weather Find more about Weather in Ararat, AU


 



 


Tabular Data for Nil La, TWC-
Time Temperature Dew Point Pressure Wind Wind Speed Wind Gust Humidity Rainfall Rate (Hourly)
TemperatureF °F DewpointF °F PressureIn in Calm     Humidity % HourlyPrecipIn in
00:04 63.9 °F 53.9 °F 30.16 in SE 8.1 mph 3.2 mph 70 % 0.00 in
00:09 63.8 °F 53.8 °F 30.16 in SE 9.2 mph 4.8 mph 70 % 0.00 in
00:14 63.7 °F 53.7 °F 30.16 in SE 8.1 mph 4.3 mph 70 % 0.00 in
00:19 63.7 °F 53.7 °F 30.16 in SE 6.9 mph 2.7 mph 70 % 0.00 in
00:24 63.6 °F 53.6 °F 30.16 in SE 5.0 mph 4.6 mph 70 % 0.00 in
00:29 63.5 °F 53.5 °F 30.16 in SE 10.4 mph 6.1 mph 70 % 0.00 in
00:34 63.3 °F 53.3 °F 30.16 in SE 9.2 mph 4.0 mph 70 % 0.00 in
00:39 63.2 °F 53.3 °F 30.16 in SE 5.0 mph 3.2 mph 70 % 0.00 in
00:44 63.1 °F 53.2 °F 30.16 in SSE 6.9 mph 5.0 mph 70 % 0.00 in
00:49 63.1 °F 53.2 °F 30.16 in SSE 6.0 mph 4.2 mph 70 % 0.00 in
00:54 63.0 °F 53.1 °F 30.16 in SSE 6.9 mph 3.2 mph 70 % 0.00 in
00:59 62.8 °F 53.3 °F 30.16 in SSE 4.6 mph 3.2 mph 71 % 0.00 in
01:04 62.6 °F 53.1 °F 30.16 in SSE 6.9 mph 4.1 mph 71 % 0.00 in
01:09 62.5 °F 53.0 °F 30.15 in SSE 6.0 mph 5.3 mph 71 % 0.00 in
01:14 62.4 °F 52.9 °F 30.15 in SSE 6.9 mph 5.2 mph 71 % 0.00 in
01:19 62.3 °F 52.8 °F 30.16 in SSE 4.6 mph 4.9 mph 71 % 0.00 in
01:24 62.2 °F 52.7 °F 30.16 in SSE 5.8 mph 5.6 mph 71 % 0.00 in
01:29 62.0 °F 52.5 °F 30.16 in SSE 6.9 mph 5.2 mph 71 % 0.00 in
01:34 61.8 °F 52.7 °F 30.16 in SSE 4.6 mph 2.2 mph 72 % 0.00 in
01:39 61.6 °F 52.5 °F 30.15 in SSE 6.9 mph 5.3 mph 72 % 0.00 in
01:44 61.4 °F 52.7 °F 30.15 in SSE 6.9 mph 5.1 mph 73 % 0.00 in
01:49 61.3 °F 52.6 °F 30.16 in SSE 4.6 mph 3.3 mph 73 % 0.00 in
01:54 61.2 °F 52.5 °F 30.15 in SSE 6.9 mph 2.6 mph 73 % 0.00 in
01:59 61.1 °F 52.4 °F 30.15 in SSE 6.9 mph 4.5 mph 73 % 0.00 in
02:04 61.1 °F 52.4 °F 30.15 in SSE 6.9 mph 5.6 mph 73 % 0.00 in
02:09 61.0 °F 52.3 °F 30.15 in SSE 5.0 mph 4.5 mph 73 % 0.00 in
02:14 61.0 °F 52.3 °F 30.15 in SSE 5.8 mph 3.8 mph 73 % 0.00 in
02:19 60.8 °F 52.5 °F 30.15 in SSE 4.6 mph 2.0 mph 74 % 0.00 in
02:24 60.5 °F 52.2 °F 30.15 in SSE 4.6 mph 4.2 mph 74 % 0.00 in
02:29 60.3 °F 52.3 °F 30.15 in SSE 5.8 mph 3.4 mph 75 % 0.00 in
02:34 59.9 °F 52.3 °F 30.14 in SSE 6.9 mph 2.4 mph 76 % 0.00 in
02:39 59.6 °F 52.4 °F 30.15 in SSE 4.6 mph 4.6 mph 77 % 0.00 in
02:44 59.3 °F 52.4 °F 30.14 in SSE 5.8 mph 3.0 mph 78 % 0.00 in
02:49 59.1 °F 52.6 °F 30.15 in SSE 4.6 mph 4.1 mph 79 % 0.00 in
02:54 58.9 °F 52.4 °F 30.15 in SSE 5.8 mph 4.7 mph 79 % 0.00 in
02:59 58.6 °F 52.4 °F 30.15 in SSE 6.9 mph 2.6 mph 80 % 0.00 in
03:04 58.5 °F 52.4 °F 30.15 in SSE 6.0 mph 3.4 mph 80 % 0.00 in
03:09 58.3 °F 52.5 °F 30.15 in SSE 4.6 mph 3.4 mph 81 % 0.00 in
03:14 58.2 °F 52.4 °F 30.15 in SSE 5.0 mph 3.8 mph 81 % 0.00 in
03:19 58.0 °F 52.2 °F 30.14 in SSE 4.6 mph 3.2 mph 81 % 0.00 in
03:24 58.0 °F 52.5 °F 30.14 in SSE 5.8 mph 3.2 mph 82 % 0.00 in
03:29 57.9 °F 52.4 °F 30.14 in SSE 4.6 mph 1.3 mph 82 % 0.00 in
03:34 57.7 °F 52.2 °F 30.14 in SSE 3.5 mph 0.6 mph 82 % 0.00 in
03:39 57.6 °F 52.1 °F 30.14 in SSE 2.0 mph 1.6 mph 82 % 0.00 in
03:44 57.4 °F 51.9 °F 30.14 in SSE 1.2 mph 0.1 mph 82 % 0.00 in
03:49 57.1 °F 51.7 °F 30.15 in SSE 2.3 mph   82 % 0.00 in
03:54 56.8 °F 51.7 °F 30.14 in SSE 2.3 mph 1.7 mph 83 % 0.00 in
03:59 56.6 °F 51.5 °F 30.15 in SSE 3.5 mph 1.5 mph 83 % 0.00 in
04:04 56.5 °F 51.7 °F 30.15 in SSE 1.2 mph 0.7 mph 84 % 0.00 in
04:09 56.3 °F 51.5 °F 30.15 in SSE 1.2 mph   84 % 0.00 in
04:14 56.2 °F 51.7 °F 30.15 in SSE 1.2 mph   85 % 0.00 in
04:19 55.9 °F 51.1 °F 30.15 in Calm     84 % 0.00 in
04:24 55.6 °F 50.8 °F 30.15 in Calm     84 % 0.00 in
04:29 55.2 °F 50.4 °F 30.15 in Calm     84 % 0.00 in
04:34 54.8 °F 50.4 °F 30.15 in SSE 4.0 mph 0.4 mph 85 % 0.00 in
04:39 54.5 °F 50.1 °F 30.15 in Calm     85 % 0.00 in
04:44 54.3 °F 50.2 °F 30.15 in Calm     86 % 0.00 in
04:49 54.1 °F 50.0 °F 30.15 in SSE 2.0 mph 1.1 mph 86 % 0.00 in
04:54 53.7 °F 49.9 °F 30.15 in Calm     87 % 0.00 in
04:59 53.5 °F 49.7 °F 30.15 in Calm     87 % 0.00 in
05:04 53.4 °F 49.6 °F 30.15 in Calm     87 % 0.00 in
05:09 53.2 °F 49.4 °F 30.16 in Calm     87 % 0.00 in
05:14 53.1 °F 49.6 °F 30.16 in Calm     88 % 0.00 in
05:19 53.0 °F 49.5 °F 30.16 in Calm     88 % 0.00 in
05:24 52.9 °F 49.4 °F 30.16 in Calm     88 % 0.00 in
05:29 52.7 °F 49.2 °F 30.16 in Calm     88 % 0.00 in
05:34 52.7 °F 49.5 °F 30.16 in Calm     89 % 0.00 in
05:39 52.6 °F 49.4 °F 30.16 in Calm     89 % 0.00 in
05:44 52.5 °F 49.4 °F 30.16 in Calm     89 % 0.00 in
05:49 52.4 °F 49.3 °F 30.16 in Calm     89 % 0.00 in
05:54 52.3 °F 49.5 °F 30.17 in Calm     90 % 0.00 in
05:59 52.3 °F 49.5 °F 30.17 in Calm     90 % 0.00 in
06:04 52.3 °F 49.5 °F 30.17 in Calm     90 % 0.00 in
06:09 52.4 °F 49.8 °F 30.17 in SSE 3.5 mph 1.2 mph 91 % 0.00 in
06:14 52.5 °F 49.9 °F 30.17 in SSE 2.3 mph   91 % 0.00 in
06:19 52.5 °F 49.9 °F 30.17 in Calm     91 % 0.00 in
06:24 52.6 °F 50.0 °F 30.18 in Calm     91 % 0.00 in
06:29 52.5 °F 49.9 °F 30.18 in SSE 2.3 mph 2.4 mph 91 % 0.00 in
06:34 52.5 °F 49.9 °F 30.18 in SSE 5.0 mph 3.6 mph 91 % 0.00 in
06:39 52.6 °F 50.0 °F 30.18 in SSE 2.3 mph 0.8 mph 91 % 0.00 in
06:44 52.4 °F 49.8 °F 30.18 in Calm     91 % 0.00 in
06:49 52.3 °F 49.8 °F 30.18 in Calm     91 % 0.00 in
06:54 52.2 °F 49.7 °F 30.18 in Calm     91 % 0.00 in
06:59 52.2 °F 49.7 °F 30.19 in Calm     91 % 0.00 in
07:04 52.2 °F 49.7 °F 30.19 in Calm     91 % 0.00 in
07:09 52.0 °F 49.5 °F 30.19 in Calm     91 % 0.00 in
07:14 51.8 °F 49.3 °F 30.19 in Calm     91 % 0.00 in
07:19 51.7 °F 49.2 °F 30.20 in Calm     91 % 0.00 in
07:24 51.8 °F 49.3 °F 30.20 in Calm     91 % 0.00 in
07:29 51.8 °F 49.3 °F 30.20 in Calm     91 % 0.00 in
07:34 51.8 °F 49.3 °F 30.21 in Calm     91 % 0.00 in
07:39 51.8 °F 49.5 °F 30.21 in Calm     92 % 0.00 in
07:44 52.0 °F 49.7 °F 30.21 in Calm     92 % 0.00 in
07:49 52.2 °F 49.9 °F 30.21 in Calm     92 % 0.00 in
07:54 52.5 °F 50.2 °F 30.21 in Calm     92 % 0.00 in
07:59 53.1 °F 51.1 °F 30.21 in Calm     93 % 0.00 in
08:04 53.6 °F 51.6 °F 30.21 in Calm     93 % 0.00 in
08:09 54.2 °F 52.2 °F 30.22 in SSE 2.0 mph 0.4 mph 93 % 0.00 in
08:14 54.8 °F 52.5 °F 30.21 in SSE 4.0 mph 2.9 mph 92 % 0.00 in
08:19 55.4 °F 53.1 °F 30.22 in SSE 4.0 mph 1.9 mph 92 % 0.00 in
08:24 55.8 °F 53.2 °F 30.22 in SSE 3.5 mph 2.3 mph 91 % 0.00 in
08:29 56.6 °F 53.7 °F 30.22 in SSE 3.5 mph 1.5 mph 90 % 0.00 in
08:34 57.4 °F 54.2 °F 30.22 in SSE 2.3 mph 1.6 mph 89 % 0.00 in
08:39 58.5 °F 54.6 °F 30.22 in SSE 4.6 mph 3.8 mph 87 % 0.00 in
08:44 60.1 °F 54.6 °F 30.22 in SSE 4.0 mph 3.5 mph 82 % 0.00 in
08:49 61.8 °F 54.2 °F 30.23 in SE 6.9 mph 5.4 mph 76 % 0.00 in
08:54 63.5 °F 53.5 °F 30.23 in ESE 8.1 mph 5.9 mph 70 % 0.00 in
08:59 65.0 °F 53.4 °F 30.23 in ESE 5.8 mph 5.8 mph 66 % 0.00 in
09:04 66.3 °F 53.8 °F 30.23 in ESE 5.8 mph 2.6 mph 64 % 0.00 in
09:09 67.7 °F 53.3 °F 30.23 in East 5.8 mph 6.5 mph 60 % 0.00 in
09:14 69.2 °F 50.8 °F 30.23 in NNE 16.1 mph 4.8 mph 52 % 0.00 in
09:19 70.6 °F 50.0 °F 30.23 in NE 11.5 mph 8.1 mph 48 % 0.00 in
09:24 71.3 °F 50.0 °F 30.23 in NNE 10.4 mph 4.8 mph 47 % 0.00 in
09:29 72.0 °F 49.5 °F 30.23 in NNE 12.7 mph 7.3 mph 45 % 0.00 in
09:34 72.5 °F 49.9 °F 30.23 in NNE 12.7 mph 4.7 mph 45 % 0.00 in
09:39 72.9 °F 48.5 °F 30.23 in NNE 16.1 mph 10.6 mph 42 % 0.00 in
09:44 73.1 °F 49.3 °F 30.23 in NNE 13.8 mph 10.7 mph 43 % 0.00 in
09:49 73.3 °F 48.8 °F 30.23 in NNE 15.0 mph 12.0 mph 42 % 0.00 in
09:54 73.7 °F 49.2 °F 30.23 in NNE 16.1 mph 11.1 mph 42 % 0.00 in
09:59 73.9 °F 48.7 °F 30.23 in North 17.3 mph 10.0 mph 41 % 0.00 in
10:04 74.2 °F 49.0 °F 30.23 in North 19.0 mph 12.6 mph 41 % 0.00 in
10:09 74.2 °F 49.0 °F 30.23 in North 16.1 mph 10.5 mph 41 % 0.00 in
10:14 74.6 °F 49.3 °F 30.23 in NNE 13.8 mph 12.4 mph 41 % 0.00 in
10:19 74.7 °F 49.4 °F 30.23 in NNE 19.0 mph 14.0 mph 41 % 0.00 in
10:24 74.7 °F 49.4 °F 30.23 in NNE 16.1 mph 7.5 mph 41 % 0.00 in
10:29 74.9 °F 49.6 °F 30.23 in NE 16.1 mph 8.6 mph 41 % 0.00 in
10:34 75.2 °F 49.9 °F 30.23 in NE 13.8 mph 9.3 mph 41 % 0.00 in
10:39 75.6 °F 50.2 °F 30.23 in North 13.8 mph 8.1 mph 41 % 0.00 in
10:44 76.3 °F 50.2 °F 30.23 in NNE 13.8 mph 8.9 mph 40 % 0.00 in
10:49 76.3 °F 50.2 °F 30.23 in NNE 12.7 mph 11.4 mph 40 % 0.00 in
10:54 76.1 °F 49.3 °F 30.23 in NE 13.8 mph 9.3 mph 39 % 0.00 in
10:59 76.4 °F 50.3 °F 30.23 in NNE 17.3 mph 5.5 mph 40 % 0.00 in
11:04 77.0 °F 50.8 °F 30.23 in North 19.6 mph 10.8 mph 40 % 0.00 in
11:09 77.5 °F 50.6 °F 30.23 in North 10.0 mph 8.2 mph 39 % 0.00 in
11:14 78.1 °F 51.1 °F 30.22 in North 11.5 mph 7.8 mph 39 % 0.00 in
11:19 79.0 °F 51.2 °F 30.22 in North 12.0 mph 7.3 mph 38 % 0.00 in
11:24 78.9 °F 51.1 °F 30.22 in NNW 12.0 mph 9.9 mph 38 % 0.00 in
11:29 78.6 °F 50.9 °F 30.22 in NNE 12.7 mph 8.1 mph 38 % 0.00 in
11:34 79.0 °F 51.9 °F 30.22 in North 11.5 mph 7.0 mph 39 % 0.00 in
11:39 79.9 °F 51.3 °F 30.22 in North 13.8 mph 7.7 mph 37 % 0.00 in
11:44 80.1 °F 51.5 °F 30.22 in NNE 16.0 mph 8.9 mph 37 % 0.00 in
11:49 79.8 °F 51.2 °F 30.22 in NNE 15.0 mph 7.7 mph 37 % 0.00 in
11:54 80.2 °F 50.8 °F 30.22 in NNE 12.7 mph 8.9 mph 36 % 0.00 in
11:59 80.3 °F 50.9 °F 30.21 in North 9.2 mph 8.5 mph 36 % 0.00 in
12:04 80.5 °F 51.1 °F 30.21 in NNE 11.0 mph 10.1 mph 36 % 0.00 in
12:09 80.7 °F 51.3 °F 30.21 in NNE 11.5 mph 7.3 mph 36 % 0.00 in
12:14 81.2 °F 50.2 °F 30.21 in NNE 12.7 mph 10.6 mph 34 % 0.00 in
12:19 81.3 °F 51.0 °F 30.21 in NE 10.4 mph 6.5 mph 35 % 0.00 in
12:24 81.4 °F 50.3 °F 30.21 in ENE 18.4 mph 10.4 mph 34 % 0.00 in
12:29 81.3 °F 51.0 °F 30.21 in NNE 18.0 mph 9.7 mph 35 % 0.00 in
12:34 81.9 °F 50.8 °F 30.21 in North 11.5 mph 10.1 mph 34 % 0.00 in
12:39 82.3 °F 50.3 °F 30.20 in North 18.4 mph 9.6 mph 33 % 0.00 in
12:44 82.5 °F 50.5 °F 30.20 in North 13.8 mph 7.6 mph 33 % 0.00 in
12:49 82.8 °F 50.8 °F 30.20 in NNE 15.0 mph 4.5 mph 33 % 0.00 in
12:54 83.4 °F 50.4 °F 30.20 in North 12.7 mph 9.6 mph 32 % 0.00 in
12:59 83.0 °F 50.1 °F 30.20 in NNE 16.0 mph 9.3 mph 32 % 0.00 in
13:04 83.2 °F 50.3 °F 30.20 in NNW 13.8 mph 7.6 mph 32 % 0.00 in
13:09 83.3 °F 50.4 °F 30.19 in NNW 11.5 mph 9.3 mph 32 % 0.00 in
13:14 83.2 °F 50.3 °F 30.19 in NNE 13.8 mph 9.9 mph 32 % 0.00 in
13:19 83.7 °F 50.7 °F 30.19 in North 12.0 mph 13.1 mph 32 % 0.00 in
13:24 84.1 °F 50.2 °F 30.19 in North 8.1 mph 5.7 mph 31 % 0.00 in
13:29 84.7 °F 49.8 °F 30.19 in NE 9.2 mph 6.8 mph 30 % 0.00 in
13:34 85.1 °F 50.2 °F 30.19 in North 6.9 mph 6.5 mph 30 % 0.00 in
13:39 85.5 °F 50.5 °F 30.18 in NNE 11.5 mph 9.1 mph 30 % 0.00 in
13:44 85.4 °F 51.3 °F 30.18 in NE 12.7 mph 9.8 mph 31 % 0.00 in
13:49 85.3 °F 50.4 °F 30.18 in North 15.0 mph 6.2 mph 30 % 0.00 in
13:54 85.4 °F 49.5 °F 30.18 in NNW 13.8 mph 9.9 mph 29 % 0.00 in
13:59 85.3 °F 50.4 °F 30.18 in NNE 8.1 mph 8.9 mph 30 % 0.00 in
14:04 85.4 °F 49.5 °F 30.18 in NNW 13.8 mph 7.6 mph 29 % 0.00 in
14:09 85.4 °F 50.4 °F 30.18 in North 12.7 mph 6.4 mph 30 % 0.00 in
14:14 85.6 °F 48.8 °F 30.18 in NNW 15.0 mph 9.0 mph 28 % 0.00 in
14:19 85.6 °F 48.8 °F 30.18 in NNW 12.7 mph 8.6 mph 28 % 0.00 in
14:24 86.0 °F 50.0 °F 30.18 in NNE 11.5 mph 6.0 mph 29 % 0.00 in
14:29 86.5 °F 49.5 °F 30.18 in NNW 13.8 mph 7.4 mph 28 % 0.00 in
14:34 86.3 °F 49.4 °F 30.17 in North 11.5 mph 6.2 mph 28 % 0.00 in
14:39 86.8 °F 49.8 °F 30.17 in North 11.5 mph 6.1 mph 28 % 0.00 in
14:44 87.5 °F 49.4 °F 30.17 in North 9.2 mph 8.7 mph 27 % 0.00 in
14:49 87.1 °F 49.1 °F 30.17 in North 12.7 mph 9.0 mph 27 % 0.00 in
14:54 87.3 °F 49.2 °F 30.17 in North 12.7 mph 6.8 mph 27 % 0.00 in
Ararat Weather
Compliments of Weather Underground - 1.75 mb
Click here to send mail.


ABOUT

Live weather data from Ararat, Victoria, Australia, 3377
Data uploaded from Cumulus every 5 minutes to Weather Underground.
This site then downloads the raw data for formatting and display.
Metric and imperial data can be displayed. Graphs and historical data available.
Includes Sun and Moon times and rain image live from BOM.

Check out Ararat Weather on Facebook, Twitter and Google +

Help support ongoing costs by checking out the ads





Follow @AraratWeather